sensor_id;sensor_type;location;lat;lon;timestamp;temperature;humidity
17370;DHT22;8802;52.402;4.920;2024-02-21T00:01:27;13.10;99.90
17370;DHT22;8802;52.402;4.920;2024-02-21T00:03:54;13.10;99.90
17370;DHT22;8802;52.402;4.920;2024-02-21T00:06:20;13.20;99.90
17370;DHT22;8802;52.402;4.920;2024-02-21T00:08:47;13.10;99.90
17370;DHT22;8802;52.402;4.920;2024-02-21T00:11:14;13.20;99.90
17370;DHT22;8802;52.402;4.920;2024-02-21T00:13:42;13.20;99.90
17370;DHT22;8802;52.402;4.920;2024-02-21T00:16:09;13.20;99.90
17370;DHT22;8802;52.402;4.920;2024-02-21T00:18:37;13.20;99.90
17370;DHT22;8802;52.402;4.920;2024-02-21T00:21:04;13.10;99.90
17370;DHT22;8802;52.402;4.920;2024-02-21T00:23:31;13.10;99.90
17370;DHT22;8802;52.402;4.920;2024-02-21T00:25:57;13.10;99.90
17370;DHT22;8802;52.402;4.920;2024-02-21T00:28:24;13.10;99.90
17370;DHT22;8802;52.402;4.920;2024-02-21T00:30:52;13.10;99.90
17370;DHT22;8802;52.402;4.920;2024-02-21T00:33:20;13.10;99.90
17370;DHT22;8802;52.402;4.920;2024-02-21T00:35:47;13.10;99.90
17370;DHT22;8802;52.402;4.920;2024-02-21T00:38:14;13.10;99.90
17370;DHT22;8802;52.402;4.920;2024-02-21T00:40:40;13.10;99.90
17370;DHT22;8802;52.402;4.920;2024-02-21T00:43:07;13.10;99.90
17370;DHT22;8802;52.402;4.920;2024-02-21T00:45:33;13.10;99.90
17370;DHT22;8802;52.402;4.920;2024-02-21T00:48:02;13.10;99.90
17370;DHT22;8802;52.402;4.920;2024-02-21T00:50:29;13.10;99.90
17370;DHT22;8802;52.402;4.920;2024-02-21T00:52:56;13.10;99.90
17370;DHT22;8802;52.402;4.920;2024-02-21T00:55:23;13.10;99.90
17370;DHT22;8802;52.402;4.920;2024-02-21T00:57:49;13.10;99.90
17370;DHT22;8802;52.402;4.920;2024-02-21T01:00:17;13.10;99.90
17370;DHT22;8802;52.402;4.920;2024-02-21T01:02:44;13.10;99.90
17370;DHT22;8802;52.402;4.920;2024-02-21T01:05:12;13.10;99.90
17370;DHT22;8802;52.402;4.920;2024-02-21T01:07:39;13.20;99.90
17370;DHT22;8802;52.402;4.920;2024-02-21T01:10:07;13.10;99.90
17370;DHT22;8802;52.402;4.920;2024-02-21T01:12:34;13.10;99.90
17370;DHT22;8802;52.402;4.920;2024-02-21T01:15:01;13.10;99.90
17370;DHT22;8802;52.402;4.920;2024-02-21T01:17:28;13.20;99.90
17370;DHT22;8802;52.402;4.920;2024-02-21T01:19:55;13.20;99.90
17370;DHT22;8802;52.402;4.920;2024-02-21T01:22:23;13.20;99.90
17370;DHT22;8802;52.402;4.920;2024-02-21T01:24:49;13.20;99.90
17370;DHT22;8802;52.402;4.920;2024-02-21T01:27:16;13.20;99.90
17370;DHT22;8802;52.402;4.920;2024-02-21T01:29:43;13.20;99.90
17370;DHT22;8802;52.402;4.920;2024-02-21T01:32:12;13.20;99.90
17370;DHT22;8802;52.402;4.920;2024-02-21T01:34:38;13.20;99.90
17370;DHT22;8802;52.402;4.920;2024-02-21T01:37:05;13.20;99.90
17370;DHT22;8802;52.402;4.920;2024-02-21T01:39:34;13.20;99.90
17370;DHT22;8802;52.402;4.920;2024-02-21T01:42:01;13.20;99.90
17370;DHT22;8802;52.402;4.920;2024-02-21T01:44:28;13.20;99.90
17370;DHT22;8802;52.402;4.920;2024-02-21T01:46:55;13.20;99.90
17370;DHT22;8802;52.402;4.920;2024-02-21T01:49:22;13.20;99.90
17370;DHT22;8802;52.402;4.920;2024-02-21T01:51:49;13.20;99.90
17370;DHT22;8802;52.402;4.920;2024-02-21T01:54:17;13.20;99.90
17370;DHT22;8802;52.402;4.920;2024-02-21T01:56:47;13.20;99.90
17370;DHT22;8802;52.402;4.920;2024-02-21T01:59:15;13.20;99.90
17370;DHT22;8802;52.402;4.920;2024-02-21T02:01:43;13.20;99.90
17370;DHT22;8802;52.402;4.920;2024-02-21T02:04:10;13.20;99.90
17370;DHT22;8802;52.402;4.920;2024-02-21T02:06:37;13.20;99.90
17370;DHT22;8802;52.402;4.920;2024-02-21T02:09:04;13.20;99.90
17370;DHT22;8802;52.402;4.920;2024-02-21T02:11:32;13.20;99.90
17370;DHT22;8802;52.402;4.920;2024-02-21T02:14:00;13.20;99.90
17370;DHT22;8802;52.402;4.920;2024-02-21T02:16:27;13.20;99.90
17370;DHT22;8802;52.402;4.920;2024-02-21T02:18:54;13.20;99.90
17370;DHT22;8802;52.402;4.920;2024-02-21T02:21:27;13.20;99.90
17370;DHT22;8802;52.402;4.920;2024-02-21T02:23:57;13.20;99.90
17370;DHT22;8802;52.402;4.920;2024-02-21T02:26:23;13.20;99.90
17370;DHT22;8802;52.402;4.920;2024-02-21T02:28:50;13.20;99.90
17370;DHT22;8802;52.402;4.920;2024-02-21T02:31:17;13.20;99.90
17370;DHT22;8802;52.402;4.920;2024-02-21T02:33:44;13.20;99.90
17370;DHT22;8802;52.402;4.920;2024-02-21T02:36:11;13.20;99.90
17370;DHT22;8802;52.402;4.920;2024-02-21T02:38:38;13.20;99.90
17370;DHT22;8802;52.402;4.920;2024-02-21T02:41:06;13.20;99.90
17370;DHT22;8802;52.402;4.920;2024-02-21T02:43:33;13.20;99.90
17370;DHT22;8802;52.402;4.920;2024-02-21T02:45:59;13.20;99.90
17370;DHT22;8802;52.402;4.920;2024-02-21T02:48:26;13.20;99.90
17370;DHT22;8802;52.402;4.920;2024-02-21T02:50:53;13.20;99.90
17370;DHT22;8802;52.402;4.920;2024-02-21T02:53:20;13.20;99.90
17370;DHT22;8802;52.402;4.920;2024-02-21T02:55:46;13.20;99.90
17370;DHT22;8802;52.402;4.920;2024-02-21T02:58:15;13.20;99.90
17370;DHT22;8802;52.402;4.920;2024-02-21T03:00:41;13.20;99.90
17370;DHT22;8802;52.402;4.920;2024-02-21T03:03:08;13.20;99.90
17370;DHT22;8802;52.402;4.920;2024-02-21T03:05:35;13.30;99.90
17370;DHT22;8802;52.402;4.920;2024-02-21T03:08:02;13.20;99.90
17370;DHT22;8802;52.402;4.920;2024-02-21T03:10:32;13.20;99.90
17370;DHT22;8802;52.402;4.920;2024-02-21T03:12:59;13.20;99.90
17370;DHT22;8802;52.402;4.920;2024-02-21T03:15:27;13.20;99.90
17370;DHT22;8802;52.402;4.920;2024-02-21T03:17:54;13.20;99.90
17370;DHT22;8802;52.402;4.920;2024-02-21T03:20:22;13.20;99.90
17370;DHT22;8802;52.402;4.920;2024-02-21T03:22:49;13.20;99.90
17370;DHT22;8802;52.402;4.920;2024-02-21T03:25:15;13.20;99.90
17370;DHT22;8802;52.402;4.920;2024-02-21T03:27:42;13.20;99.90
17370;DHT22;8802;52.402;4.920;2024-02-21T03:30:10;13.20;99.90
17370;DHT22;8802;52.402;4.920;2024-02-21T03:32:39;13.20;99.90
17370;DHT22;8802;52.402;4.920;2024-02-21T03:35:06;13.20;99.90
17370;DHT22;8802;52.402;4.920;2024-02-21T03:37:33;13.20;99.90
17370;DHT22;8802;52.402;4.920;2024-02-21T03:40:00;13.20;99.90
17370;DHT22;8802;52.402;4.920;2024-02-21T03:42:27;13.20;99.90
17370;DHT22;8802;52.402;4.920;2024-02-21T03:44:55;13.20;99.90
17370;DHT22;8802;52.402;4.920;2024-02-21T03:47:22;13.30;99.90
17370;DHT22;8802;52.402;4.920;2024-02-21T03:49:50;13.20;99.90
17370;DHT22;8802;52.402;4.920;2024-02-21T03:52:17;13.20;99.90
17370;DHT22;8802;52.402;4.920;2024-02-21T03:54:44;13.20;99.90
17370;DHT22;8802;52.402;4.920;2024-02-21T03:57:11;13.20;99.90
17370;DHT22;8802;52.402;4.920;2024-02-21T03:59:38;13.20;99.90
17370;DHT22;8802;52.402;4.920;2024-02-21T04:02:05;13.20;99.90
17370;DHT22;8802;52.402;4.920;2024-02-21T04:04:34;13.20;99.90
17370;DHT22;8802;52.402;4.920;2024-02-21T04:07:02;13.20;99.90
17370;DHT22;8802;52.402;4.920;2024-02-21T04:09:32;13.20;99.90
17370;DHT22;8802;52.402;4.920;2024-02-21T04:11:59;13.20;99.90
17370;DHT22;8802;52.402;4.920;2024-02-21T04:14:26;13.20;99.90
17370;DHT22;8802;52.402;4.920;2024-02-21T04:16:53;13.20;99.90
17370;DHT22;8802;52.402;4.920;2024-02-21T04:19:19;13.20;99.90
17370;DHT22;8802;52.402;4.920;2024-02-21T04:21:46;13.20;99.90
17370;DHT22;8802;52.402;4.920;2024-02-21T04:24:15;13.20;99.90
17370;DHT22;8802;52.402;4.920;2024-02-21T04:26:41;13.20;99.90
17370;DHT22;8802;52.402;4.920;2024-02-21T04:29:09;13.20;99.90
17370;DHT22;8802;52.402;4.920;2024-02-21T04:31:36;13.20;99.90
17370;DHT22;8802;52.402;4.920;2024-02-21T04:34:02;13.20;99.90
17370;DHT22;8802;52.402;4.920;2024-02-21T04:36:29;13.30;99.90
17370;DHT22;8802;52.402;4.920;2024-02-21T04:38:56;13.20;99.90
17370;DHT22;8802;52.402;4.920;2024-02-21T04:41:24;13.20;99.90
17370;DHT22;8802;52.402;4.920;2024-02-21T04:43:51;13.20;99.90
17370;DHT22;8802;52.402;4.920;2024-02-21T04:46:18;13.20;99.90
17370;DHT22;8802;52.402;4.920;2024-02-21T04:48:45;13.20;99.90
17370;DHT22;8802;52.402;4.920;2024-02-21T04:51:12;13.20;99.90
17370;DHT22;8802;52.402;4.920;2024-02-21T04:53:39;13.20;99.90
17370;DHT22;8802;52.402;4.920;2024-02-21T04:56:06;13.20;99.90
17370;DHT22;8802;52.402;4.920;2024-02-21T04:58:37;13.20;99.90
17370;DHT22;8802;52.402;4.920;2024-02-21T05:01:04;13.20;99.90
17370;DHT22;8802;52.402;4.920;2024-02-21T05:03:31;13.20;99.90
17370;DHT22;8802;52.402;4.920;2024-02-21T05:05:59;13.30;99.90
17370;DHT22;8802;52.402;4.920;2024-02-21T05:08:26;13.30;99.90
17370;DHT22;8802;52.402;4.920;2024-02-21T05:10:52;13.30;99.90
17370;DHT22;8802;52.402;4.920;2024-02-21T05:13:20;13.30;99.90
17370;DHT22;8802;52.402;4.920;2024-02-21T05:15:48;13.30;99.90
17370;DHT22;8802;52.402;4.920;2024-02-21T05:18:15;13.30;99.90
17370;DHT22;8802;52.402;4.920;2024-02-21T05:20:41;13.30;99.90
17370;DHT22;8802;52.402;4.920;2024-02-21T05:23:08;13.30;99.90
17370;DHT22;8802;52.402;4.920;2024-02-21T05:25:35;13.30;99.90
17370;DHT22;8802;52.402;4.920;2024-02-21T05:28:02;13.30;99.90
17370;DHT22;8802;52.402;4.920;2024-02-21T05:30:31;13.30;99.90
17370;DHT22;8802;52.402;4.920;2024-02-21T05:33:03;13.20;99.90
17370;DHT22;8802;52.402;4.920;2024-02-21T05:35:30;13.30;99.90
17370;DHT22;8802;52.402;4.920;2024-02-21T05:37:57;13.30;99.90
17370;DHT22;8802;52.402;4.920;2024-02-21T05:40:25;13.20;99.90
17370;DHT22;8802;52.402;4.920;2024-02-21T05:42:52;13.30;99.90
17370;DHT22;8802;52.402;4.920;2024-02-21T05:45:18;13.30;99.90
17370;DHT22;8802;52.402;4.920;2024-02-21T05:47:45;13.30;99.90
17370;DHT22;8802;52.402;4.920;2024-02-21T05:50:14;13.30;99.90
17370;DHT22;8802;52.402;4.920;2024-02-21T05:52:40;13.20;99.90
17370;DHT22;8802;52.402;4.920;2024-02-21T05:55:07;13.20;99.90
17370;DHT22;8802;52.402;4.920;2024-02-21T05:57:35;13.20;99.90
17370;DHT22;8802;52.402;4.920;2024-02-21T06:00:04;13.20;99.90
17370;DHT22;8802;52.402;4.920;2024-02-21T06:02:34;13.20;99.90
17370;DHT22;8802;52.402;4.920;2024-02-21T06:05:00;13.20;99.90
17370;DHT22;8802;52.402;4.920;2024-02-21T06:07:29;13.20;99.90
17370;DHT22;8802;52.402;4.920;2024-02-21T06:09:56;13.20;99.90
17370;DHT22;8802;52.402;4.920;2024-02-21T06:12:23;13.20;99.90
17370;DHT22;8802;52.402;4.920;2024-02-21T06:14:49;13.20;99.90
17370;DHT22;8802;52.402;4.920;2024-02-21T06:17:16;13.20;99.90
17370;DHT22;8802;52.402;4.920;2024-02-21T06:19:43;13.10;99.90
17370;DHT22;8802;52.402;4.920;2024-02-21T06:22:11;13.20;99.90
17370;DHT22;8802;52.402;4.920;2024-02-21T06:24:39;13.10;99.90
17370;DHT22;8802;52.402;4.920;2024-02-21T06:27:06;13.10;99.90
17370;DHT22;8802;52.402;4.920;2024-02-21T06:29:33;13.10;99.90
17370;DHT22;8802;52.402;4.920;2024-02-21T06:32:01;13.10;99.90
17370;DHT22;8802;52.402;4.920;2024-02-21T06:34:28;13.10;99.90
17370;DHT22;8802;52.402;4.920;2024-02-21T06:36:54;13.10;99.90
17370;DHT22;8802;52.402;4.920;2024-02-21T06:39:21;13.00;99.90
17370;DHT22;8802;52.402;4.920;2024-02-21T06:41:50;13.00;99.90
17370;DHT22;8802;52.402;4.920;2024-02-21T06:44:18;13.00;99.90
17370;DHT22;8802;52.402;4.920;2024-02-21T06:46:45;13.00;99.90
17370;DHT22;8802;52.402;4.920;2024-02-21T06:49:12;13.00;99.90
17370;DHT22;8802;52.402;4.920;2024-02-21T06:51:41;13.00;99.90
17370;DHT22;8802;52.402;4.920;2024-02-21T06:54:08;13.00;99.90
17370;DHT22;8802;52.402;4.920;2024-02-21T06:56:36;13.00;99.90
17370;DHT22;8802;52.402;4.920;2024-02-21T06:59:04;13.00;99.90
17370;DHT22;8802;52.402;4.920;2024-02-21T07:01:31;13.00;99.90
17370;DHT22;8802;52.402;4.920;2024-02-21T07:03:58;13.00;99.90
17370;DHT22;8802;52.402;4.920;2024-02-21T07:06:25;12.90;99.90
17370;DHT22;8802;52.402;4.920;2024-02-21T07:08:52;12.90;99.90
17370;DHT22;8802;52.402;4.920;2024-02-21T07:11:18;12.90;99.90
17370;DHT22;8802;52.402;4.920;2024-02-21T07:13:45;12.90;99.90
17370;DHT22;8802;52.402;4.920;2024-02-21T07:16:13;12.90;99.90
17370;DHT22;8802;52.402;4.920;2024-02-21T07:18:40;12.90;99.90
17370;DHT22;8802;52.402;4.920;2024-02-21T07:21:07;13.00;99.90
17370;DHT22;8802;52.402;4.920;2024-02-21T07:23:34;12.90;99.90
17370;DHT22;8802;52.402;4.920;2024-02-21T07:26:01;12.90;99.90
17370;DHT22;8802;52.402;4.920;2024-02-21T07:28:28;13.00;99.90
17370;DHT22;8802;52.402;4.920;2024-02-21T07:30:55;12.90;99.90
17370;DHT22;8802;52.402;4.920;2024-02-21T07:33:23;12.90;99.90
17370;DHT22;8802;52.402;4.920;2024-02-21T07:35:50;12.90;99.90
17370;DHT22;8802;52.402;4.920;2024-02-21T07:38:17;12.90;99.90
17370;DHT22;8802;52.402;4.920;2024-02-21T07:40:44;12.90;99.90
17370;DHT22;8802;52.402;4.920;2024-02-21T07:43:11;13.00;99.90
17370;DHT22;8802;52.402;4.920;2024-02-21T07:45:38;12.90;99.90
17370;DHT22;8802;52.402;4.920;2024-02-21T07:48:05;13.00;99.90
17370;DHT22;8802;52.402;4.920;2024-02-21T07:50:34;13.00;99.90
17370;DHT22;8802;52.402;4.920;2024-02-21T07:53:01;13.00;99.90
17370;DHT22;8802;52.402;4.920;2024-02-21T07:55:27;13.00;99.90
17370;DHT22;8802;52.402;4.920;2024-02-21T07:57:54;13.00;99.90
17370;DHT22;8802;52.402;4.920;2024-02-21T08:00:21;13.00;99.90
17370;DHT22;8802;52.402;4.920;2024-02-21T08:02:49;13.00;99.90
17370;DHT22;8802;52.402;4.920;2024-02-21T08:05:16;13.00;99.90
17370;DHT22;8802;52.402;4.920;2024-02-21T08:07:44;13.00;99.90
17370;DHT22;8802;52.402;4.920;2024-02-21T08:10:11;13.00;99.90
17370;DHT22;8802;52.402;4.920;2024-02-21T08:12:38;13.00;99.90
17370;DHT22;8802;52.402;4.920;2024-02-21T08:15:06;13.10;99.90
17370;DHT22;8802;52.402;4.920;2024-02-21T08:17:33;13.10;99.90
17370;DHT22;8802;52.402;4.920;2024-02-21T08:20:00;13.10;99.90
17370;DHT22;8802;52.402;4.920;2024-02-21T08:22:28;13.00;99.90
17370;DHT22;8802;52.402;4.920;2024-02-21T08:24:56;13.10;99.90
17370;DHT22;8802;52.402;4.920;2024-02-21T08:27:23;13.10;99.90
17370;DHT22;8802;52.402;4.920;2024-02-21T08:29:50;13.20;99.90
17370;DHT22;8802;52.402;4.920;2024-02-21T08:32:17;13.10;99.90
17370;DHT22;8802;52.402;4.920;2024-02-21T08:34:44;13.20;99.90
17370;DHT22;8802;52.402;4.920;2024-02-21T08:37:11;13.20;99.90
17370;DHT22;8802;52.402;4.920;2024-02-21T08:39:38;13.20;99.90
17370;DHT22;8802;52.402;4.920;2024-02-21T08:42:06;13.20;99.90
17370;DHT22;8802;52.402;4.920;2024-02-21T08:44:33;13.20;99.90
17370;DHT22;8802;52.402;4.920;2024-02-21T08:47:00;13.20;99.90
17370;DHT22;8802;52.402;4.920;2024-02-21T08:49:29;13.20;99.90
17370;DHT22;8802;52.402;4.920;2024-02-21T08:51:56;13.20;99.90
17370;DHT22;8802;52.402;4.920;2024-02-21T08:54:23;13.20;99.90
17370;DHT22;8802;52.402;4.920;2024-02-21T08:56:50;13.20;99.90
17370;DHT22;8802;52.402;4.920;2024-02-21T08:59:18;13.20;99.90
17370;DHT22;8802;52.402;4.920;2024-02-21T09:01:46;13.20;99.90
17370;DHT22;8802;52.402;4.920;2024-02-21T09:04:13;13.20;99.90
17370;DHT22;8802;52.402;4.920;2024-02-21T09:06:40;13.20;99.90
17370;DHT22;8802;52.402;4.920;2024-02-21T09:09:08;13.20;99.90
17370;DHT22;8802;52.402;4.920;2024-02-21T09:11:35;13.20;99.90
17370;DHT22;8802;52.402;4.920;2024-02-21T09:14:02;13.20;99.90
17370;DHT22;8802;52.402;4.920;2024-02-21T09:16:31;13.20;99.90
17370;DHT22;8802;52.402;4.920;2024-02-21T09:18:58;13.20;99.90
17370;DHT22;8802;52.402;4.920;2024-02-21T09:21:26;13.20;99.90
17370;DHT22;8802;52.402;4.920;2024-02-21T09:23:53;13.20;99.90
17370;DHT22;8802;52.402;4.920;2024-02-21T09:26:20;13.20;99.90
17370;DHT22;8802;52.402;4.920;2024-02-21T09:28:47;13.20;99.90
17370;DHT22;8802;52.402;4.920;2024-02-21T09:31:14;13.20;99.90
17370;DHT22;8802;52.402;4.920;2024-02-21T09:33:42;13.30;99.90
17370;DHT22;8802;52.402;4.920;2024-02-21T09:36:09;13.30;99.90
17370;DHT22;8802;52.402;4.920;2024-02-21T09:38:36;13.30;99.90
17370;DHT22;8802;52.402;4.920;2024-02-21T09:41:15;13.30;99.90
17370;DHT22;8802;52.402;4.920;2024-02-21T09:43:43;13.30;99.90
17370;DHT22;8802;52.402;4.920;2024-02-21T09:46:15;13.30;99.90
17370;DHT22;8802;52.402;4.920;2024-02-21T09:48:56;13.30;99.90
17370;DHT22;8802;52.402;4.920;2024-02-21T09:51:27;13.40;99.90
17370;DHT22;8802;52.402;4.920;2024-02-21T09:53:56;13.30;99.90
17370;DHT22;8802;52.402;4.920;2024-02-21T09:56:24;13.40;99.90
17370;DHT22;8802;52.402;4.920;2024-02-21T09:58:51;13.40;99.90
17370;DHT22;8802;52.402;4.920;2024-02-21T10:01:17;13.40;99.90
17370;DHT22;8802;52.402;4.920;2024-02-21T10:03:46;13.40;99.90
17370;DHT22;8802;52.402;4.920;2024-02-21T10:06:13;13.40;99.90
17370;DHT22;8802;52.402;4.920;2024-02-21T10:08:40;13.40;99.90
17370;DHT22;8802;52.402;4.920;2024-02-21T10:11:07;13.40;99.90
17370;DHT22;8802;52.402;4.920;2024-02-21T10:13:35;13.40;99.90
17370;DHT22;8802;52.402;4.920;2024-02-21T10:16:04;13.50;99.90
17370;DHT22;8802;52.402;4.920;2024-02-21T10:18:32;13.50;99.90
17370;DHT22;8802;52.402;4.920;2024-02-21T10:21:04;13.50;99.90
17370;DHT22;8802;52.402;4.920;2024-02-21T10:23:42;13.50;99.90
17370;DHT22;8802;52.402;4.920;2024-02-21T10:26:09;13.50;99.90
17370;DHT22;8802;52.402;4.920;2024-02-21T10:28:37;13.50;99.90
17370;DHT22;8802;52.402;4.920;2024-02-21T10:31:08;13.50;99.90
17370;DHT22;8802;52.402;4.920;2024-02-21T10:33:35;13.50;99.90
17370;DHT22;8802;52.402;4.920;2024-02-21T10:36:11;13.50;99.90
17370;DHT22;8802;52.402;4.920;2024-02-21T10:38:38;13.50;99.90
17370;DHT22;8802;52.402;4.920;2024-02-21T10:41:05;13.50;99.90
17370;DHT22;8802;52.402;4.920;2024-02-21T10:43:38;13.50;99.90
17370;DHT22;8802;52.402;4.920;2024-02-21T10:46:07;13.50;99.90
17370;DHT22;8802;52.402;4.920;2024-02-21T10:48:43;13.60;99.90
17370;DHT22;8802;52.402;4.920;2024-02-21T10:51:18;13.50;99.90
17370;DHT22;8802;52.402;4.920;2024-02-21T10:53:50;13.60;99.90
17370;DHT22;8802;52.402;4.920;2024-02-21T10:56:23;13.60;99.90
17370;DHT22;8802;52.402;4.920;2024-02-21T10:58:53;13.60;99.90
17370;DHT22;8802;52.402;4.920;2024-02-21T11:01:20;13.60;99.90
17370;DHT22;8802;52.402;4.920;2024-02-21T11:03:51;13.60;99.90
17370;DHT22;8802;52.402;4.920;2024-02-21T11:06:22;13.60;99.90
17370;DHT22;8802;52.402;4.920;2024-02-21T11:09:00;13.60;99.90
17370;DHT22;8802;52.402;4.920;2024-02-21T11:11:28;13.60;99.90
17370;DHT22;8802;52.402;4.920;2024-02-21T11:14:04;13.60;99.90
17370;DHT22;8802;52.402;4.920;2024-02-21T11:16:36;13.60;99.90
17370;DHT22;8802;52.402;4.920;2024-02-21T11:19:05;13.50;99.90
17370;DHT22;8802;52.402;4.920;2024-02-21T11:21:34;13.50;99.90
17370;DHT22;8802;52.402;4.920;2024-02-21T11:24:01;13.50;99.90
17370;DHT22;8802;52.402;4.920;2024-02-21T11:26:29;13.60;99.90
17370;DHT22;8802;52.402;4.920;2024-02-21T11:28:57;13.50;99.90
17370;DHT22;8802;52.402;4.920;2024-02-21T11:31:25;13.50;99.90
17370;DHT22;8802;52.402;4.920;2024-02-21T11:33:53;13.50;99.90
17370;DHT22;8802;52.402;4.920;2024-02-21T11:36:24;13.50;99.90
17370;DHT22;8802;52.402;4.920;2024-02-21T11:38:53;13.50;99.90
17370;DHT22;8802;52.402;4.920;2024-02-21T11:41:20;13.50;99.90
17370;DHT22;8802;52.402;4.920;2024-02-21T11:43:48;13.50;99.90
17370;DHT22;8802;52.402;4.920;2024-02-21T11:46:15;13.50;99.90
17370;DHT22;8802;52.402;4.920;2024-02-21T11:48:42;13.50;99.90
17370;DHT22;8802;52.402;4.920;2024-02-21T11:51:10;13.50;99.90
17370;DHT22;8802;52.402;4.920;2024-02-21T11:53:37;13.60;99.90
17370;DHT22;8802;52.402;4.920;2024-02-21T11:56:05;13.60;99.90
17370;DHT22;8802;52.402;4.920;2024-02-21T11:58:32;13.60;99.90
17370;DHT22;8802;52.402;4.920;2024-02-21T12:00:59;13.60;99.90
17370;DHT22;8802;52.402;4.920;2024-02-21T12:03:28;13.70;99.90
17370;DHT22;8802;52.402;4.920;2024-02-21T12:05:55;13.70;99.90
17370;DHT22;8802;52.402;4.920;2024-02-21T12:08:24;13.70;99.90
17370;DHT22;8802;52.402;4.920;2024-02-21T12:10:51;13.80;99.90
17370;DHT22;8802;52.402;4.920;2024-02-21T12:13:22;13.80;99.90
17370;DHT22;8802;52.402;4.920;2024-02-21T12:15:49;13.80;99.90
17370;DHT22;8802;52.402;4.920;2024-02-21T12:18:16;13.90;99.90
17370;DHT22;8802;52.402;4.920;2024-02-21T12:20:43;13.90;99.90
17370;DHT22;8802;52.402;4.920;2024-02-21T12:23:11;13.90;99.90
17370;DHT22;8802;52.402;4.920;2024-02-21T12:25:39;13.90;99.90
17370;DHT22;8802;52.402;4.920;2024-02-21T12:28:06;13.90;99.90
17370;DHT22;8802;52.402;4.920;2024-02-21T12:30:34;13.90;99.90
17370;DHT22;8802;52.402;4.920;2024-02-21T12:33:05;14.00;99.90
17370;DHT22;8802;52.402;4.920;2024-02-21T12:35:32;14.00;99.90
17370;DHT22;8802;52.402;4.920;2024-02-21T12:37:59;14.00;99.90
17370;DHT22;8802;52.402;4.920;2024-02-21T12:40:27;14.00;99.90
17370;DHT22;8802;52.402;4.920;2024-02-21T12:42:58;14.00;99.90
17370;DHT22;8802;52.402;4.920;2024-02-21T12:45:25;14.00;99.90
17370;DHT22;8802;52.402;4.920;2024-02-21T12:47:53;14.00;99.90
17370;DHT22;8802;52.402;4.920;2024-02-21T12:50:20;14.00;99.90
17370;DHT22;8802;52.402;4.920;2024-02-21T12:52:48;14.00;99.90
17370;DHT22;8802;52.402;4.920;2024-02-21T12:55:15;14.00;99.90
17370;DHT22;8802;52.402;4.920;2024-02-21T12:57:42;14.00;99.90
17370;DHT22;8802;52.402;4.920;2024-02-21T13:00:10;14.00;99.90
17370;DHT22;8802;52.402;4.920;2024-02-21T13:02:37;14.00;99.90
17370;DHT22;8802;52.402;4.920;2024-02-21T13:05:06;14.00;99.90
17370;DHT22;8802;52.402;4.920;2024-02-21T13:07:33;14.00;99.90
17370;DHT22;8802;52.402;4.920;2024-02-21T13:10:00;14.00;99.90
17370;DHT22;8802;52.402;4.920;2024-02-21T13:12:27;14.00;99.90
17370;DHT22;8802;52.402;4.920;2024-02-21T13:14:56;14.00;99.90
17370;DHT22;8802;52.402;4.920;2024-02-21T13:17:22;14.00;99.90
17370;DHT22;8802;52.402;4.920;2024-02-21T13:19:49;14.00;99.90
17370;DHT22;8802;52.402;4.920;2024-02-21T13:22:18;14.00;99.90
17370;DHT22;8802;52.402;4.920;2024-02-21T13:24:47;14.00;99.90
17370;DHT22;8802;52.402;4.920;2024-02-21T13:27:14;14.00;99.90
17370;DHT22;8802;52.402;4.920;2024-02-21T13:29:41;13.90;99.90
17370;DHT22;8802;52.402;4.920;2024-02-21T13:32:08;14.00;99.90
17370;DHT22;8802;52.402;4.920;2024-02-21T13:34:35;13.90;99.90
17370;DHT22;8802;52.402;4.920;2024-02-21T13:37:02;13.90;99.90
17370;DHT22;8802;52.402;4.920;2024-02-21T13:39:31;13.90;99.90
17370;DHT22;8802;52.402;4.920;2024-02-21T13:42:00;13.90;99.90
17370;DHT22;8802;52.402;4.920;2024-02-21T13:44:27;13.90;99.90
17370;DHT22;8802;52.402;4.920;2024-02-21T13:46:53;13.90;99.90
17370;DHT22;8802;52.402;4.920;2024-02-21T13:49:20;13.90;99.90
17370;DHT22;8802;52.402;4.920;2024-02-21T13:51:47;13.90;99.90
17370;DHT22;8802;52.402;4.920;2024-02-21T13:54:14;13.90;99.90
17370;DHT22;8802;52.402;4.920;2024-02-21T13:56:46;13.80;99.90
17370;DHT22;8802;52.402;4.920;2024-02-21T13:59:12;13.80;99.90
17370;DHT22;8802;52.402;4.920;2024-02-21T14:01:40;13.80;99.90
17370;DHT22;8802;52.402;4.920;2024-02-21T14:04:06;13.80;99.90
17370;DHT22;8802;52.402;4.920;2024-02-21T14:06:33;13.80;99.90
17370;DHT22;8802;52.402;4.920;2024-02-21T14:09:01;13.80;99.90
17370;DHT22;8802;52.402;4.920;2024-02-21T14:11:28;13.80;99.90
17370;DHT22;8802;52.402;4.920;2024-02-21T14:13:57;13.80;99.90
17370;DHT22;8802;52.402;4.920;2024-02-21T14:16:25;13.70;99.90
17370;DHT22;8802;52.402;4.920;2024-02-21T14:18:52;13.70;99.90
17370;DHT22;8802;52.402;4.920;2024-02-21T14:21:19;13.70;99.90
17370;DHT22;8802;52.402;4.920;2024-02-21T14:23:46;13.70;99.90
17370;DHT22;8802;52.402;4.920;2024-02-21T14:26:13;13.70;99.90
17370;DHT22;8802;52.402;4.920;2024-02-21T14:28:40;13.70;99.90
17370;DHT22;8802;52.402;4.920;2024-02-21T14:31:09;13.70;99.90
17370;DHT22;8802;52.402;4.920;2024-02-21T14:33:36;13.70;99.90
17370;DHT22;8802;52.402;4.920;2024-02-21T14:36:03;13.70;99.90
17370;DHT22;8802;52.402;4.920;2024-02-21T14:38:31;13.60;99.90
17370;DHT22;8802;52.402;4.920;2024-02-21T14:40:57;13.60;99.90
17370;DHT22;8802;52.402;4.920;2024-02-21T14:43:24;13.60;99.90
17370;DHT22;8802;52.402;4.920;2024-02-21T14:45:52;13.60;99.90
17370;DHT22;8802;52.402;4.920;2024-02-21T14:48:20;13.60;99.90
17370;DHT22;8802;52.402;4.920;2024-02-21T14:50:47;13.50;99.90
17370;DHT22;8802;52.402;4.920;2024-02-21T14:53:15;13.50;99.90
17370;DHT22;8802;52.402;4.920;2024-02-21T14:55:42;13.50;99.90
17370;DHT22;8802;52.402;4.920;2024-02-21T14:58:09;13.50;99.90
17370;DHT22;8802;52.402;4.920;2024-02-21T15:00:36;13.40;99.90
17370;DHT22;8802;52.402;4.920;2024-02-21T15:03:04;13.40;99.90
17370;DHT22;8802;52.402;4.920;2024-02-21T15:05:32;13.40;99.90
17370;DHT22;8802;52.402;4.920;2024-02-21T15:08:00;13.40;99.90
17370;DHT22;8802;52.402;4.920;2024-02-21T15:10:27;13.40;99.90
17370;DHT22;8802;52.402;4.920;2024-02-21T15:12:54;13.30;99.90
17370;DHT22;8802;52.402;4.920;2024-02-21T15:15:21;13.30;99.90
17370;DHT22;8802;52.402;4.920;2024-02-21T15:17:48;13.30;99.90
17370;DHT22;8802;52.402;4.920;2024-02-21T15:20:15;13.30;99.90
17370;DHT22;8802;52.402;4.920;2024-02-21T15:22:44;13.20;99.90
17370;DHT22;8802;52.402;4.920;2024-02-21T15:25:11;13.10;99.90
17370;DHT22;8802;52.402;4.920;2024-02-21T15:27:41;13.10;99.90
17370;DHT22;8802;52.402;4.920;2024-02-21T15:30:09;13.10;99.90
17370;DHT22;8802;52.402;4.920;2024-02-21T15:32:36;13.10;99.90
17370;DHT22;8802;52.402;4.920;2024-02-21T15:35:04;13.00;99.90
17370;DHT22;8802;52.402;4.920;2024-02-21T15:37:31;13.00;99.90
17370;DHT22;8802;52.402;4.920;2024-02-21T15:39:59;13.00;99.90
17370;DHT22;8802;52.402;4.920;2024-02-21T15:42:27;12.90;99.90
17370;DHT22;8802;52.402;4.920;2024-02-21T15:44:54;12.90;99.90
17370;DHT22;8802;52.402;4.920;2024-02-21T15:47:21;12.90;99.90